Time;durP1;ratioP1;P1;durP2;ratioP2;P2;SDS_P1;SDS_P2;PMS_P1;PMS_P2;Temp;Humidity;BMP_temperature;BMP_pressure;BME280_temperature;BME280_humidity;BME280_pressure;Samples;Min_cycle;Max_cycle;Signal;HPM_P1;HPM_P2
2023/11/04 00:01:02;;;;;;;3.53;2.20;;;6.90;99.90;;;;;;5042920;28;20183;-89
2023/11/04 00:03:28;;;;;;;3.15;1.90;;;7.00;99.90;;;;;;5043948;28;20439;-91
2023/11/04 00:05:53;;;;;;;3.70;2.07;;;7.10;99.90;;;;;;5044151;28;20189;-91
2023/11/04 00:08:19;;;;;;;2.97;2.30;;;7.20;99.90;;;;;;5046694;28;20281;-90
2023/11/04 00:10:45;;;;;;;2.67;2.30;;;7.20;99.90;;;;;;5047816;28;20258;-90
2023/11/04 00:13:10;;;;;;;2.60;1.87;;;8.40;99.90;;;;;;5048591;28;20219;-91
2023/11/04 00:15:36;;;;;;;4.00;2.03;;;7.10;99.90;;;;;;5049355;28;20189;-91
2023/11/04 00:18:01;;;;;;;2.70;2.20;;;7.30;99.90;;;;;;5053198;28;20629;-91
2023/11/04 00:20:27;;;;;;;2.17;1.90;;;7.00;99.90;;;;;;5056165;28;20191;-90
2023/11/04 00:22:53;;;;;;;2.30;1.77;;;7.40;99.90;;;;;;5059531;28;20464;-91
2023/11/04 00:25:19;;;;;;;2.45;1.90;;;7.00;99.90;;;;;;5052588;28;20324;-91
2023/11/04 00:27:45;;;;;;;4.33;2.07;;;7.00;99.90;;;;;;5046659;28;20201;-90
2023/11/04 00:30:13;;;;;;;2.20;1.83;;;7.10;99.90;;;;;;5050962;28;20190;-90
2023/11/04 00:32:38;;;;;;;2.05;1.80;;;7.40;99.90;;;;;;5051383;28;20585;-90
2023/11/04 00:35:04;;;;;;;2.87;2.00;;;7.20;99.90;;;;;;5047975;28;20273;-90
2023/11/04 00:37:30;;;;;;;2.90;2.13;;;7.20;99.90;;;;;;5046331;28;20688;-90
2023/11/04 00:39:56;;;;;;;2.45;2.00;;;7.20;99.90;;;;;;5052372;28;20639;-90
2023/11/04 00:42:21;;;;;;;1.83;1.50;;;7.00;99.90;;;;;;5051350;28;20316;-91
2023/11/04 00:44:47;;;;;;;3.00;2.20;;;7.20;99.90;;;;;;5053397;28;20537;-90
2023/11/04 00:47:13;;;;;;;1.87;1.77;;;7.20;99.90;;;;;;5052156;28;20194;-90
2023/11/04 00:49:38;;;;;;;3.60;2.30;;;7.50;99.90;;;;;;5053039;28;20204;-90
2023/11/04 00:52:04;;;;;;;1.80;1.53;;;7.20;99.90;;;;;;5049519;28;20185;-90
2023/11/04 00:54:30;;;;;;;1.80;1.70;;;7.20;99.90;;;;;;5051962;28;20255;-91
2023/11/04 00:56:55;;;;;;;2.27;2.03;;;7.10;99.90;;;;;;5052046;28;20474;-91
2023/11/04 00:59:21;;;;;;;4.73;2.70;;;7.60;99.90;;;;;;5049212;28;20548;-91
2023/11/04 01:01:47;;;;;;;3.07;2.77;;;7.30;99.90;;;;;;5051543;28;20234;-91
2023/11/04 01:04:13;;;;;;;3.03;2.40;;;7.50;99.90;;;;;;5056515;28;20577;-91
2023/11/04 01:06:39;;;;;;;3.50;2.50;;;;;;;;;;5054141;28;20431;-90
2023/11/04 01:09:05;;;;;;;3.63;2.72;;;7.20;99.90;;;;;;5053267;28;20260;-91
2023/11/04 01:11:30;;;;;;;2.65;1.83;;;7.00;99.90;;;;;;5052408;28;20654;-91
2023/11/04 01:13:56;;;;;;;6.63;2.70;;;7.20;99.90;;;;;;5059605;28;20210;-91
2023/11/04 01:16:22;;;;;;;2.70;2.50;;;7.00;99.90;;;;;;5072023;28;20220;-90
2023/11/04 01:18:48;;;;;;;2.93;2.70;;;7.40;99.90;;;;;;5057621;28;20210;-91
2023/11/04 01:21:14;;;;;;;3.00;2.45;;;7.10;99.90;;;;;;5054261;28;20293;-91
2023/11/04 01:23:39;;;;;;;4.87;3.13;;;6.80;99.90;;;;;;5052705;28;20690;-91
2023/11/04 01:26:05;;;;;;;2.93;2.50;;;6.80;99.90;;;;;;5054017;28;20474;-91
2023/11/04 01:28:30;;;;;;;4.67;2.70;;;6.60;99.90;;;;;;5047612;28;20288;-91
2023/11/04 01:30:56;;;;;;;2.90;2.67;;;6.70;99.90;;;;;;5049126;28;20181;-90
2023/11/04 01:33:21;;;;;;;3.20;2.60;;;7.00;99.90;;;;;;5044545;28;20244;-91
2023/11/04 01:35:47;;;;;;;2.87;2.57;;;6.90;99.90;;;;;;5045459;28;20212;-91
2023/11/04 01:38:12;;;;;;;2.50;2.30;;;6.50;99.90;;;;;;5048404;28;20753;-90
2023/11/04 01:40:38;;;;;;;3.50;2.50;;;6.90;99.90;;;;;;5047204;28;20183;-91
2023/11/04 01:43:03;;;;;;;6.13;3.67;;;6.20;99.90;;;;;;5047900;28;20205;-91
2023/11/04 01:45:29;;;;;;;3.37;2.57;;;6.40;99.90;;;;;;5046220;28;20181;-90
2023/11/04 01:47:54;;;;;;;5.80;2.90;;;6.30;99.90;;;;;;5046930;28;20196;-91
2023/11/04 01:50:20;;;;;;;3.97;2.67;;;6.60;99.90;;;;;;5048638;28;20669;-91
2023/11/04 01:52:46;;;;;;;3.13;2.50;;;;;;;;;;5047395;28;20206;-91
2023/11/04 01:55:13;;;;;;;3.38;2.50;;;6.20;99.90;;;;;;5048775;28;20714;-91
2023/11/04 01:57:39;;;;;;;2.88;2.35;;;6.10;99.90;;;;;;5049193;28;20214;-91
2023/11/04 02:00:08;;;;;;;2.40;2.20;;;5.50;99.90;;;;;;5051698;28;20209;-89
2023/11/04 02:02:33;;;;;;;4.10;2.80;;;6.00;99.90;;;;;;5049387;28;20195;-91
2023/11/04 02:05:00;;;;;;;2.87;2.43;;;6.00;99.90;;;;;;5047690;28;20191;-90
2023/11/04 02:07:25;;;;;;;2.63;2.42;;;5.90;99.90;;;;;;5047948;28;20190;-89
2023/11/04 02:09:52;;;;;;;3.10;2.20;;;6.00;99.90;;;;;;5049993;28;20258;-89
2023/11/04 02:12:20;;;;;;;3.63;2.90;;;6.00;99.90;;;;;;5048567;28;20193;-90
2023/11/04 02:14:52;;;;;;;4.18;2.53;;;6.00;99.90;;;;;;5048634;28;20186;-89
2023/11/04 02:17:19;;;;;;;4.65;2.92;;;5.60;99.90;;;;;;5050788;28;20212;-90
2023/11/04 02:19:45;;;;;;;6.40;2.90;;;6.30;99.90;;;;;;5051619;28;20188;-91
2023/11/04 02:22:11;;;;;;;2.37;2.17;;;;;;;;;;5048206;28;20182;-90
2023/11/04 02:24:37;;;;;;;3.15;2.72;;;;;;;;;;5051594;28;20478;-90
2023/11/04 02:27:03;;;;;;;3.30;2.42;;;5.60;99.90;;;;;;5057285;28;20172;-90
2023/11/04 02:29:28;;;;;;;2.80;2.47;;;5.60;99.90;;;;;;5049471;28;20273;-90
2023/11/04 02:31:54;;;;;;;3.40;2.10;;;5.10;99.90;;;;;;5055633;28;20424;-90
2023/11/04 02:34:20;;;;;;;2.50;2.20;;;;;;;;;;5052671;28;20728;-90
2023/11/04 02:36:45;;;;;;;3.40;2.30;;;5.70;99.90;;;;;;5040550;28;20276;-90
2023/11/04 02:39:11;;;;;;;2.90;2.53;;;;;;;;;;5051463;28;20466;-90
2023/11/04 02:41:37;;;;;;;2.20;1.90;;;;;;;;;;5045848;28;20173;-90
2023/11/04 02:44:04;;;;;;;2.53;2.17;;;5.90;99.90;;;;;;5050304;28;20205;-90
2023/11/04 02:46:30;;;;;;;3.10;2.70;;;;;;;;;;5047726;28;20511;-90
2023/11/04 02:48:55;;;;;;;2.67;2.33;;;5.70;99.90;;;;;;5049533;28;20276;-90
2023/11/04 02:51:22;;;;;;;4.30;2.70;;;;;;;;;;5053627;28;20436;-90
2023/11/04 02:53:48;;;;;;;2.75;2.10;;;;;;;;;;5040830;28;20206;-91
2023/11/04 02:56:15;;;;;;;2.55;2.35;;;5.60;99.90;;;;;;5048092;28;20651;-90
2023/11/04 02:58:41;;;;;;;2.40;2.20;;;;;;;;;;5049138;28;20369;-90
2023/11/04 03:01:06;;;;;;;3.08;2.42;;;5.80;99.90;;;;;;5048882;28;20226;-89
2023/11/04 03:03:32;;;;;;;2.50;2.30;;;5.80;99.90;;;;;;5044509;28;20200;-89
2023/11/04 03:05:58;;;;;;;2.03;1.73;;;5.90;99.90;;;;;;5044950;28;20204;-89
2023/11/04 03:08:25;;;;;;;2.87;2.57;;;6.00;99.90;;;;;;5047848;28;20689;-88
2023/11/04 03:10:51;;;;;;;3.45;2.53;;;5.90;99.90;;;;;;5043994;28;20646;-90
2023/11/04 03:13:17;;;;;;;4.80;2.67;;;5.80;99.90;;;;;;5042103;28;20573;-91
2023/11/04 03:15:43;;;;;;;2.73;2.23;;;6.30;99.90;;;;;;5040605;28;20180;-87
2023/11/04 03:18:08;;;;;;;3.60;2.57;;;5.90;99.90;;;;;;5043577;28;20205;-88
2023/11/04 03:20:34;;;;;;;3.23;2.67;;;5.70;99.90;;;;;;5041983;28;20171;-89
2023/11/04 03:22:59;;;;;;;3.70;2.57;;;6.20;99.90;;;;;;5045657;28;20202;-89
2023/11/04 03:25:25;;;;;;;2.70;2.27;;;5.80;99.90;;;;;;5043836;28;20189;-91
2023/11/04 03:27:50;;;;;;;2.80;2.23;;;5.60;99.90;;;;;;5044617;28;20566;-92
2023/11/04 03:30:16;;;;;;;5.00;2.43;;;5.60;99.90;;;;;;5043888;28;20200;-91
2023/11/04 03:32:41;;;;;;;2.37;2.17;;;6.00;99.90;;;;;;5042893;28;20209;-92
2023/11/04 03:45:28;;;;;;;2.60;2.00;;;6.40;99.90;;;;;;5045237;28;20701;-90
2023/11/04 03:47:54;;;;;;;2.90;2.63;;;4.70;99.90;;;;;;5062417;28;20196;-90
2023/11/04 03:50:20;;;;;;;2.63;2.38;;;5.80;99.90;;;;;;5077176;28;20203;-91
2023/11/04 03:52:46;;;;;;;2.37;2.17;;;;;;;;;;5054903;28;20209;-90
2023/11/04 03:55:11;;;;;;;2.57;2.37;;;5.70;99.90;;;;;;5052521;28;20276;-89
2023/11/04 03:57:37;;;;;;;4.80;2.23;;;5.30;99.90;;;;;;5048754;28;20467;-90
2023/11/04 04:00:03;;;;;;;6.63;2.20;;;5.90;99.90;;;;;;5049098;28;20185;-90
2023/11/04 04:02:28;;;;;;;4.93;2.03;;;5.70;99.90;;;;;;5049798;28;20216;-88
2023/11/04 04:04:54;;;;;;;2.40;2.13;;;5.70;99.90;;;;;;5043906;28;20178;-88
2023/11/04 04:07:19;;;;;;;2.30;2.10;;;5.70;99.90;;;;;;5048571;28;20207;-87
2023/11/04 04:09:45;;;;;;;2.90;2.20;;;5.70;99.90;;;;;;5050099;28;20180;-89
2023/11/04 04:12:10;;;;;;;2.20;2.00;;;5.50;99.90;;;;;;5049109;28;20261;-88
2023/11/04 04:14:36;;;;;;;2.43;2.23;;;;;;;;;;5049670;28;20231;-89
2023/11/04 04:17:02;;;;;;;2.05;1.90;;;;;;;;;;5041497;28;20215;-88
2023/11/04 04:19:28;;;;;;;2.60;2.05;;;5.50;99.90;;;;;;5049621;28;20279;-88
2023/11/04 04:21:53;;;;;;;2.00;1.80;;;5.30;99.90;;;;;;5046135;28;20284;-89
2023/11/04 04:24:19;;;;;;;2.57;2.37;;;5.20;99.90;;;;;;5044608;28;20211;-88
2023/11/04 04:26:45;;;;;;;3.87;2.50;;;5.90;99.90;;;;;;5050200;28;20229;-87
2023/11/04 04:29:10;;;;;;;2.00;1.90;;;5.50;99.90;;;;;;5050675;28;20267;-87
2023/11/04 04:31:36;;;;;;;1.60;1.50;;;5.60;99.90;;;;;;5048988;28;21053;-89
2023/11/04 04:34:01;;;;;;;2.30;2.00;;;5.40;99.90;;;;;;5046117;28;20204;-90
2023/11/04 04:36:27;;;;;;;2.17;1.97;;;5.90;99.90;;;;;;5045724;28;21275;-90
2023/11/04 04:38:52;;;;;;;2.67;2.13;;;5.50;99.90;;;;;;5050894;28;20214;-89
2023/11/04 04:41:18;;;;;;;2.80;2.60;;;5.60;99.90;;;;;;5049728;28;20193;-90
2023/11/04 04:43:43;;;;;;;2.10;1.90;;;5.70;99.90;;;;;;5048860;28;20243;-88
2023/11/04 04:46:11;;;;;;;2.40;2.13;;;5.50;99.90;;;;;;5052787;28;20586;-89
2023/11/04 04:48:36;;;;;;;2.22;2.03;;;5.40;99.90;;;;;;5050329;28;20211;-87
2023/11/04 04:51:02;;;;;;;2.50;2.30;;;5.30;99.90;;;;;;5052945;28;20259;-87
2023/11/04 04:53:29;;;;;;;2.57;2.03;;;5.50;99.90;;;;;;5050109;28;20307;-87
2023/11/04 04:55:55;;;;;;;2.47;2.20;;;;;;;;;;5045626;28;20193;-89
2023/11/04 04:58:22;;;;;;;3.20;2.10;;;5.60;99.90;;;;;;5051329;28;20193;-89
2023/11/04 05:00:47;;;;;;;2.42;2.13;;;5.70;99.90;;;;;;5071207;28;20436;-89
2023/11/04 05:03:13;;;;;;;4.13;2.83;;;5.70;99.90;;;;;;5067109;28;20211;-90
2023/11/04 05:05:38;;;;;;;2.90;2.70;;;5.70;99.90;;;;;;5054424;28;20192;-90
2023/11/04 05:08:04;;;;;;;2.97;2.77;;;5.40;99.90;;;;;;5051737;28;20645;-88
2023/11/04 05:10:29;;;;;;;4.90;2.20;;;5.60;99.90;;;;;;5051673;28;20197;-88
2023/11/04 05:12:55;;;;;;;2.50;2.00;;;5.60;99.90;;;;;;5052423;28;20216;-88
2023/11/04 05:15:20;;;;;;;1.97;1.87;;;6.10;99.90;;;;;;5052398;28;20193;-88
2023/11/04 05:17:46;;;;;;;2.00;1.90;;;6.00;99.90;;;;;;5060848;28;20212;-88
2023/11/04 05:20:12;;;;;;;2.43;1.90;;;5.70;99.90;;;;;;5073088;28;20472;-88
2023/11/04 05:22:37;;;;;;;2.17;1.97;;;5.70;99.90;;;;;;5062505;28;20185;-88
2023/11/04 05:25:03;;;;;;;4.70;2.63;;;5.60;99.90;;;;;;5053069;28;20694;-88
2023/11/04 05:27:29;;;;;;;2.20;2.00;;;5.70;99.90;;;;;;5051695;28;20190;-89
2023/11/04 05:29:55;;;;;;;2.23;2.07;;;5.70;99.90;;;;;;5059045;28;20183;-90
2023/11/04 05:32:20;;;;;;;2.20;2.00;;;5.60;99.90;;;;;;5056943;28;20610;-90
2023/11/04 05:34:46;;;;;;;2.60;2.40;;;5.40;99.90;;;;;;5053542;28;20737;-90
2023/11/04 05:37:12;;;;;;;2.10;1.93;;;6.10;99.90;;;;;;5048436;28;20206;-90
2023/11/04 05:39:37;;;;;;;1.80;1.70;;;5.60;99.90;;;;;;5066072;28;20177;-90
2023/11/04 05:42:05;;;;;;;2.07;1.70;;;5.80;99.90;;;;;;5077642;28;20177;-90
2023/11/04 05:44:31;;;;;;;2.05;1.95;;;5.40;99.90;;;;;;5072283;28;20217;-90
2023/11/04 05:46:56;;;;;;;3.00;2.30;;;5.70;99.90;;;;;;5053792;28;20280;-91
2023/11/04 05:49:22;;;;;;;2.20;2.00;;;5.90;99.90;;;;;;5033447;28;20232;-90
2023/11/04 05:51:47;;;;;;;3.20;2.40;;;5.70;99.90;;;;;;5053583;28;20181;-89
2023/11/04 05:54:13;;;;;;;2.40;1.80;;;5.90;99.90;;;;;;5051897;28;20255;-89
2023/11/04 05:56:38;;;;;;;1.73;1.60;;;5.70;99.90;;;;;;5060169;28;20189;-89
2023/11/04 05:59:04;;;;;;;2.97;2.77;;;6.10;99.90;;;;;;5071183;28;20221;-89
2023/11/04 06:01:30;;;;;;;2.30;1.77;;;5.70;99.90;;;;;;5072786;28;20213;-89
2023/11/04 06:03:56;;;;;;;2.10;1.90;;;5.90;99.90;;;;;;5061319;28;20236;-91
2023/11/04 06:06:22;;;;;;;2.30;2.10;;;5.70;99.90;;;;;;5048638;28;20226;-91
2023/11/04 06:08:48;;;;;;;4.05;1.90;;;5.50;99.90;;;;;;5050161;28;20600;-91
2023/11/04 06:11:13;;;;;;;1.53;1.43;;;6.20;99.90;;;;;;5048249;28;20277;-89
2023/11/04 06:13:42;;;;;;;1.80;1.70;;;5.80;99.90;;;;;;5048929;28;20750;-89
2023/11/04 06:16:08;;;;;;;2.17;2.00;;;5.80;99.90;;;;;;5052259;28;20181;-90
2023/11/04 06:18:36;;;;;;;2.10;1.90;;;5.90;99.90;;;;;;5050279;28;20329;-89
2023/11/04 06:21:02;;;;;;;3.63;3.33;;;6.30;99.90;;;;;;5062033;28;20173;-89
2023/11/04 06:23:28;;;;;;;2.15;1.95;;;5.80;99.90;;;;;;5105040;22;20245;-90
2023/11/04 06:25:54;;;;;;;2.47;2.27;;;5.60;99.90;;;;;;5092626;28;20193;-91
2023/11/04 06:28:20;;;;;;;2.03;1.77;;;5.70;99.90;;;;;;5071730;28;20616;-92
2023/11/04 06:30:46;;;;;;;2.13;1.85;;;6.10;99.90;;;;;;5071942;28;20226;-91
2023/11/04 06:33:12;;;;;;;2.43;2.23;;;;;;;;;;5061097;28;20257;-91
2023/11/04 06:35:38;;;;;;;4.78;2.30;;;5.80;99.90;;;;;;5047297;28;20223;-91
2023/11/04 06:38:04;;;;;;;1.73;1.63;;;5.90;99.90;;;;;;5061414;28;20234;-91
2023/11/04 06:40:30;;;;;;;1.75;1.65;;;6.10;99.90;;;;;;5050265;28;20477;-90
2023/11/04 06:42:56;;;;;;;2.30;2.10;;;5.60;99.90;;;;;;5045590;28;20206;-90
2023/11/04 06:45:21;;;;;;;2.53;2.23;;;5.70;99.90;;;;;;5044839;28;20204;-90
2023/11/04 06:47:47;;;;;;;3.40;2.00;;;5.60;99.90;;;;;;5049909;28;20650;-90
2023/11/04 06:50:12;;;;;;;2.37;2.20;;;6.20;99.90;;;;;;5046755;28;20193;-92
2023/11/04 06:52:38;;;;;;;2.20;2.10;;;5.60;99.90;;;;;;5043956;28;20193;-92
2023/11/04 06:55:04;;;;;;;2.43;2.23;;;5.90;99.90;;;;;;5047887;28;20197;-93
2023/11/04 06:57:30;;;;;;;2.20;2.00;;;5.60;99.90;;;;;;5050246;28;20239;-93
2023/11/04 06:59:56;;;;;;;2.40;2.20;;;5.50;99.90;;;;;;5065082;28;20211;-93
2023/11/04 07:02:22;;;;;;;2.10;1.95;;;5.90;99.90;;;;;;5061875;28;20434;-91
2023/11/04 07:04:47;;;;;;;3.30;2.25;;;5.60;99.90;;;;;;5070439;28;20193;-90
2023/11/04 07:07:13;;;;;;;4.43;1.83;;;6.10;99.90;;;;;;5051993;28;20224;-91
2023/11/04 07:09:39;;;;;;;2.33;1.80;;;5.60;99.90;;;;;;5063744;28;20197;-93
2023/11/04 07:12:04;;;;;;;2.10;1.90;;;5.90;99.90;;;;;;5072270;28;20661;-91
2023/11/04 07:14:32;;;;;;;2.50;2.07;;;5.80;99.90;;;;;;5051217;28;20708;-90
2023/11/04 07:17:00;;;;;;;2.63;1.90;;;6.60;99.90;;;;;;5047628;28;20193;-91
2023/11/04 07:19:26;;;;;;;2.10;2.00;;;6.80;99.90;;;;;;5052288;28;20189;-92
2023/11/04 07:21:51;;;;;;;2.38;1.77;;;7.10;99.90;;;;;;5048839;28;20189;-91
2023/11/04 07:24:18;;;;;;;1.90;1.80;;;5.80;99.90;;;;;;5046862;28;20229;-89
2023/11/04 07:26:46;;;;;;;3.22;2.03;;;6.10;99.90;;;;;;5045612;28;20227;-89
2023/11/04 07:29:13;;;;;;;2.40;2.20;;;6.20;99.90;;;;;;5034361;28;20185;-90
2023/11/04 07:31:38;;;;;;;3.28;2.67;;;8.20;99.90;;;;;;5046782;28;20556;-90
2023/11/04 07:34:05;;;;;;;3.30;2.10;;;;;;;;;;5048075;28;20289;-90
2023/11/04 07:36:31;;;;;;;3.47;2.30;;;5.90;99.90;;;;;;5051045;28;20441;-90
2023/11/04 07:38:57;;;;;;;2.20;1.90;;;;;;;;;;5044143;28;20221;-90
2023/11/04 07:41:22;;;;;;;2.47;2.22;;;6.30;99.90;;;;;;5072261;28;20185;-91
2023/11/04 07:43:48;;;;;;;2.83;2.50;;;6.50;99.90;;;;;;5050119;28;20716;-91
2023/11/04 07:46:14;;;;;;;3.17;2.23;;;6.40;99.90;;;;;;5049466;28;20502;-91
2023/11/04 07:48:39;;;;;;;2.77;2.40;;;6.90;99.90;;;;;;5053610;28;20691;-90
2023/11/04 07:51:05;;;;;;;2.80;2.17;;;6.90;99.90;;;;;;5051947;28;20181;-91
2023/11/04 07:56:02;;;;;;;3.70;3.00;;;6.80;99.90;;;;;;5012599;28;20217;-90
2023/11/04 07:58:27;;;;;;;2.95;2.28;;;7.00;99.90;;;;;;5021049;28;20209;-91
2023/11/04 08:00:53;;;;;;;2.80;2.60;;;6.70;99.90;;;;;;5011676;28;20193;-89
2023/11/04 08:03:20;;;;;;;6.22;4.10;;;7.50;99.90;;;;;;5019295;28;20261;-91
2023/11/04 08:05:59;;;;;;;;;;;;;;;;;;;;;
2023/11/04 08:08:25;;;;;;;4.85;2.95;;;7.40;99.90;;;;;;5033288;28;20262;-90
2023/11/04 08:10:51;;;;;;;1.60;1.50;;;7.10;99.90;;;;;;5033643;28;20174;-91
2023/11/04 08:13:18;;;;;;;6.13;4.43;;;7.80;99.90;;;;;;5033545;28;20198;-90
2023/11/04 08:15:44;;;;;;;5.55;4.72;;;7.80;99.90;;;;;;5034578;28;20203;-90
2023/11/04 08:18:09;;;;;;;3.40;3.10;;;8.00;99.90;;;;;;5015095;28;20218;-89
2023/11/04 08:20:35;;;;;;;2.63;2.30;;;8.50;99.90;;;;;;5001747;28;20187;-90
2023/11/04 08:23:01;;;;;;;2.23;2.00;;;8.60;99.90;;;;;;5016796;28;20256;-90
2023/11/04 08:25:27;;;;;;;2.20;2.00;;;8.70;99.90;;;;;;5016760;28;20408;-89
2023/11/04 08:27:52;;;;;;;2.22;2.03;;;8.60;99.90;;;;;;5029900;28;20225;-89
2023/11/04 08:30:18;;;;;;;1.50;1.40;;;8.60;99.90;;;;;;5029682;28;20258;-89
2023/11/04 08:32:43;;;;;;;1.33;1.23;;;8.70;99.90;;;;;;5035465;28;20195;-90
2023/11/04 08:35:09;;;;;;;1.30;1.20;;;10.40;99.90;;;;;;5036247;28;20434;-91
2023/11/04 08:37:34;;;;;;;1.30;1.20;;;9.20;99.90;;;;;;5018995;28;20461;-91
2023/11/04 08:40:00;;;;;;;1.90;1.30;;;9.30;99.90;;;;;;5030605;28;20190;-91
2023/11/04 08:42:26;;;;;;;1.83;1.00;;;9.40;99.90;;;;;;5042606;28;20193;-93
2023/11/04 08:44:51;;;;;;;1.37;1.27;;;9.30;99.90;;;;;;5039567;28;20191;-90
2023/11/04 08:47:17;;;;;;;1.17;1.07;;;9.40;99.90;;;;;;5023738;28;20199;-91
2023/11/04 08:49:43;;;;;;;1.00;0.90;;;9.80;99.90;;;;;;5027829;28;20191;-90
2023/11/04 08:52:09;;;;;;;1.13;1.00;;;9.80;99.90;;;;;;5037600;28;20183;-90
2023/11/04 08:54:35;;;;;;;1.40;1.17;;;10.00;99.90;;;;;;5024878;28;20775;-91
2023/11/04 08:57:01;;;;;;;2.30;1.10;;;9.70;99.90;;;;;;4999560;28;20846;-92
2023/11/04 08:59:26;;;;;;;2.90;1.40;;;10.80;99.90;;;;;;4979939;28;20192;-91
2023/11/04 09:01:53;;;;;;;1.97;1.10;;;10.30;99.90;;;;;;4977433;28;20449;-91
2023/11/04 09:04:19;;;;;;;1.10;1.00;;;10.50;99.90;;;;;;4995740;28;20233;-91
2023/11/04 09:06:47;;;;;;;1.73;1.20;;;11.20;99.90;;;;;;4976548;28;20204;-92
2023/11/04 09:09:21;;;;;;;0.95;0.85;;;10.80;99.90;;;;;;4997948;28;20225;-92
2023/11/04 09:11:55;;;;;;;0.80;0.80;;;10.90;99.90;;;;;;4992588;28;20204;-92
2023/11/04 10:55:35;;;;;;;1.75;1.50;;;12.30;96.50;;;;;;5092382;28;20218;-86
2023/11/04 10:58:17;;;;;;;1.10;1.00;;;12.10;96.70;;;;;;5088720;28;21160;-87
2023/11/04 11:00:46;;;;;;;1.55;1.10;;;13.00;97.40;;;;;;5090068;28;20183;-87
2023/11/04 11:03:14;;;;;;;3.05;0.90;;;12.40;97.10;;;;;;5090965;28;20204;-88
2023/11/04 11:05:42;;;;;;;1.25;1.00;;;14.10;97.60;;;;;;5092318;28;20194;-86
2023/11/04 11:08:08;;;;;;;1.73;1.08;;;13.30;97.80;;;;;;5089102;28;20180;-87
2023/11/04 11:10:59;;;;;;;1.10;0.80;;;13.60;98.50;;;;;;5107711;28;20210;-88
2023/11/04 11:13:45;;;;;;;1.15;1.05;;;12.00;96.40;;;;;;5107203;28;20267;-87
2023/11/04 11:16:30;;;;;;;1.23;0.88;;;13.30;98.00;;;;;;5089650;28;20182;-88
2023/11/04 11:19:09;;;;;;;1.02;0.80;;;13.60;98.10;;;;;;5097302;28;20214;-88
2023/11/04 11:21:50;;;;;;;0.98;0.88;;;12.50;95.80;;;;;;5115704;28;20210;-87
2023/11/04 11:24:20;;;;;;;1.25;1.10;;;12.30;95.50;;;;;;5106745;28;20218;-88
2023/11/04 11:26:57;;;;;;;1.13;0.80;;;12.30;95.70;;;;;;5105981;28;20200;-87
2023/11/04 11:29:24;;;;;;;1.00;0.90;;;12.70;95.10;;;;;;5090186;28;20194;-87
2023/11/04 11:32:02;;;;;;;1.02;0.90;;;12.90;95.00;;;;;;5090686;28;20649;-87
2023/11/04 11:34:27;;;;;;;1.00;0.90;;;12.90;94.90;;;;;;5091453;28;20203;-88
2023/11/04 11:36:53;;;;;;;1.43;0.77;;;12.60;94.60;;;;;;5088804;28;20567;-88
2023/11/04 11:39:19;;;;;;;2.20;1.10;;;12.70;94.30;;;;;;5087787;28;20314;-87
2023/11/04 11:41:46;;;;;;;1.40;1.27;;;13.00;94.30;;;;;;5091399;28;20184;-87
2023/11/04 11:44:13;;;;;;;1.88;1.13;;;12.90;94.20;;;;;;5090951;28;20196;-87
2023/11/04 11:46:42;;;;;;;1.05;0.95;;;12.60;93.70;;;;;;5074093;28;20223;-89
2023/11/04 11:49:09;;;;;;;1.00;0.90;;;14.00;94.50;;;;;;5093777;28;20287;-87
2023/11/04 11:51:35;;;;;;;1.23;1.10;;;12.60;93.00;;;;;;5080715;28;20188;-88
2023/11/04 11:54:01;;;;;;;0.80;0.70;;;13.10;93.00;;;;;;5100974;28;20269;-88
2023/11/04 11:56:30;;;;;;;2.80;1.00;;;12.70;92.90;;;;;;5103557;28;20222;-88
2023/11/04 11:59:05;;;;;;;2.13;0.93;;;12.40;92.50;;;;;;5091616;28;20462;-85
2023/11/04 12:01:32;;;;;;;0.70;0.60;;;14.30;93.10;;;;;;5092541;28;20175;-87
2023/11/04 12:04:01;;;;;;;1.65;0.70;;;12.60;92.40;;;;;;5093986;28;20206;-87
2023/11/04 12:06:30;;;;;;;1.23;0.60;;;12.50;92.30;;;;;;5088544;28;20620;-88
2023/11/04 12:08:57;;;;;;;0.77;0.65;;;12.60;92.50;;;;;;5091198;28;20268;-88
2023/11/04 12:11:26;;;;;;;1.17;0.85;;;12.90;92.90;;;;;;5089404;28;20192;-89
2023/11/04 12:13:52;;;;;;;0.70;0.60;;;12.50;92.80;;;;;;5072798;28;20211;-87
2023/11/04 12:16:18;;;;;;;4.30;0.80;;;12.70;92.90;;;;;;5083505;28;20191;-88
2023/11/04 12:18:47;;;;;;;1.30;0.70;;;12.80;93.30;;;;;;5087276;28;20215;-87
2023/11/04 12:21:16;;;;;;;1.10;1.00;;;12.30;93.00;;;;;;5110190;28;20183;-88
2023/11/04 12:23:42;;;;;;;3.47;1.00;;;12.30;93.70;;;;;;5072342;28;20212;-88
2023/11/04 12:26:07;;;;;;;0.93;0.80;;;12.50;94.10;;;;;;5091587;28;20176;-87
2023/11/04 12:28:41;;;;;;;0.77;0.70;;;12.30;93.60;;;;;;5093559;28;20880;-87
2023/11/04 12:31:07;;;;;;;1.30;0.80;;;12.90;94.20;;;;;;5087765;28;20191;-87
2023/11/04 12:33:35;;;;;;;1.30;1.00;;;12.70;94.70;;;;;;5107541;28;20380;-87
2023/11/04 12:36:11;;;;;;;0.80;0.70;;;12.40;94.60;;;;;;5101072;28;20221;-87
2023/11/04 12:38:37;;;;;;;0.77;0.77;;;12.30;93.60;;;;;;5091349;28;20238;-87
2023/11/04 12:41:03;;;;;;;1.10;0.70;;;12.90;93.80;;;;;;5107008;28;20180;-87
2023/11/04 12:43:30;;;;;;;0.80;0.70;;;12.40;93.20;;;;;;5110423;28;20529;-88
2023/11/04 12:46:01;;;;;;;1.00;0.85;;;12.40;93.70;;;;;;5102180;28;20286;-88
2023/11/04 12:48:26;;;;;;;1.73;1.00;;;12.80;93.90;;;;;;5076973;28;20207;-88
2023/11/04 12:50:55;;;;;;;1.17;0.90;;;12.50;93.60;;;;;;5093896;28;20749;-88
2023/11/04 12:53:24;;;;;;;0.80;0.80;;;12.40;93.20;;;;;;5091496;28;20295;-88
2023/11/04 12:55:50;;;;;;;1.10;0.98;;;12.30;93.20;;;;;;5092110;28;20206;-88
2023/11/04 12:58:16;;;;;;;1.33;0.80;;;12.70;93.50;;;;;;5074866;28;20208;-88
2023/11/04 13:00:42;;;;;;;1.08;0.90;;;12.90;93.70;;;;;;5091268;28;20173;-87
2023/11/04 13:03:08;;;;;;;1.27;0.73;;;13.00;93.90;;;;;;5098250;28;20204;-88
2023/11/04 13:05:34;;;;;;;0.83;0.77;;;12.40;92.40;;;;;;5087673;28;20192;-88
2023/11/04 13:07:59;;;;;;;0.70;0.70;;;12.70;92.60;;;;;;5089168;28;20229;-88
2023/11/04 13:10:25;;;;;;;0.90;0.80;;;12.70;92.50;;;;;;5069954;28;20250;-88
2023/11/04 13:12:51;;;;;;;1.53;0.70;;;12.60;92.70;;;;;;5087710;28;20215;-88
2023/11/04 13:15:17;;;;;;;0.83;0.80;;;12.50;93.50;;;;;;5086690;28;20440;-88
2023/11/04 13:17:43;;;;;;;0.80;0.70;;;12.30;92.80;;;;;;5088469;28;20216;-88
2023/11/04 13:20:10;;;;;;;1.67;0.90;;;12.20;93.60;;;;;;5088222;28;20457;-89
2023/11/04 13:22:36;;;;;;;0.93;0.85;;;12.60;94.60;;;;;;5069075;28;20208;-88
2023/11/04 13:25:02;;;;;;;0.90;0.80;;;12.20;93.70;;;;;;5091428;28;20183;-88
2023/11/04 13:27:28;;;;;;;0.80;0.60;;;12.20;93.50;;;;;;5087627;28;20191;-89
2023/11/04 13:29:55;;;;;;;0.70;0.70;;;12.30;93.70;;;;;;5099742;28;20183;-88
2023/11/04 13:32:21;;;;;;;1.25;0.80;;;12.30;94.40;;;;;;5100645;28;20438;-88
2023/11/04 13:34:48;;;;;;;0.80;0.70;;;12.10;92.90;;;;;;5089981;28;20304;-88
2023/11/04 13:37:15;;;;;;;2.25;0.80;;;12.40;93.10;;;;;;5090739;28;20260;-88
2023/11/04 13:39:41;;;;;;;0.82;0.82;;;11.90;93.40;;;;;;5090684;28;20680;-87
2023/11/04 13:42:07;;;;;;;1.50;0.80;;;12.40;93.50;;;;;;5088740;28;20230;-87
2023/11/04 13:44:32;;;;;;;0.80;0.70;;;12.00;93.80;;;;;;5091319;28;20286;-89
2023/11/04 13:46:58;;;;;;;0.90;0.60;;;12.20;93.90;;;;;;5095040;28;20183;-87
2023/11/04 13:49:23;;;;;;;1.03;0.90;;;11.90;94.30;;;;;;5096270;28;20579;-87
2023/11/04 13:51:49;;;;;;;1.47;0.73;;;12.30;94.50;;;;;;5091618;28;20260;-88
2023/11/04 13:54:15;;;;;;;2.93;0.70;;;11.80;94.70;;;;;;5071620;28;20224;-87
2023/11/04 13:56:40;;;;;;;2.60;0.57;;;11.70;94.40;;;;;;5090264;28;20244;-87
2023/11/04 13:59:08;;;;;;;0.80;0.63;;;11.70;94.40;;;;;;5092270;28;20219;-87
2023/11/04 14:01:34;;;;;;;0.90;0.70;;;12.10;94.50;;;;;;5099398;28;20254;-87
2023/11/04 14:04:01;;;;;;;0.80;0.70;;;12.00;94.50;;;;;;5090723;28;20214;-87
2023/11/04 14:06:26;;;;;;;0.90;0.70;;;12.10;95.50;;;;;;5110498;28;20217;-88
2023/11/04 14:08:52;;;;;;;0.93;0.83;;;11.50;94.80;;;;;;5091495;28;20203;-88
2023/11/04 14:11:18;;;;;;;1.07;0.70;;;13.10;95.80;;;;;;5094029;28;20202;-87
2023/11/04 14:13:43;;;;;;;1.10;0.70;;;11.60;95.20;;;;;;5093358;28;20271;-88
2023/11/04 14:16:09;;;;;;;0.90;0.73;;;10.90;95.50;;;;;;5093735;28;20191;-88
2023/11/04 14:18:34;;;;;;;0.80;0.70;;;11.30;96.00;;;;;;5098054;28;20212;-87
2023/11/04 14:21:05;;;;;;;0.80;0.70;;;11.80;96.90;;;;;;5089720;28;20179;-88
2023/11/04 14:23:31;;;;;;;1.25;1.00;;;11.40;96.90;;;;;;5090822;28;20282;-89
2023/11/04 14:25:56;;;;;;;2.23;0.80;;;11.30;97.60;;;;;;5087567;28;20255;-89
2023/11/04 14:28:22;;;;;;;2.13;0.87;;;11.10;98.00;;;;;;5092494;28;20194;-88
2023/11/04 14:30:48;;;;;;;3.23;1.20;;;11.30;98.40;;;;;;5085757;28;20233;-89
2023/11/04 14:33:14;;;;;;;1.20;1.10;;;11.20;98.80;;;;;;5086114;28;20642;-88
2023/11/04 14:35:39;;;;;;;1.45;1.10;;;11.60;99.40;;;;;;5089084;28;20724;-88
2023/11/04 14:38:05;;;;;;;1.27;0.80;;;11.20;99.40;;;;;;5085159;28;20208;-87
2023/11/04 14:40:31;;;;;;;0.80;0.70;;;11.10;99.30;;;;;;5080478;28;20178;-87
2023/11/04 14:42:56;;;;;;;1.23;1.00;;;11.30;99.30;;;;;;5082323;28;20464;-88
2023/11/04 14:45:23;;;;;;;1.00;0.90;;;11.20;99.50;;;;;;5089658;28;20190;-89
2023/11/04 14:47:48;;;;;;;0.85;0.80;;;11.20;99.20;;;;;;5073858;28;20509;-89
2023/11/04 14:50:14;;;;;;;1.07;0.80;;;11.20;99.00;;;;;;5090406;28;20335;-89